Details From GCGM - La Gomera
To GCHI - Hierro
Flight Number -
Tags generated
Created
Modified
Stats Distance 38 nm / 70 km
Max Altitude 0 ft / 0 m
Waypoints 3
Social Downloads 2
Likes 0
Share VATSIM

Download

Looking for another format? Having issues loading an existing format? Contact us
Advertisement - Login to hide

Notes

None

Route

GCGM GOMER GCHI

ID Type Via Altitude Latitude Longitude Leg Dist Tot Dist Heading (true) Name
O GCGM APT - 0 ft / 0 m 28.02963˚ -17.21460˚ - 0 nm - La Gomera
GOMER FIX - 0 ft / 0 m 28.00000˚ -17.33333˚ 6 nm 6 nm 254° / 254° -
O GCHI APT - 0 ft / 0 m 27.81485˚ -17.88705˚ 31 nm 37 nm 249° / 249° Hierro

Altitude Profile

Advertisement - Login to hide

GCGM

Details ICAO GCGM (GMZ)
Name La Gomera
Region Canary Islands
Timezone Atlantic/Canary (UTC+1.0)
Stats Elevation 715 ft / 218 m (AMSL)
Location 28.029627° -17.214603°
Runways 1
Magnetic Variation 5.306° W

METAR

Not found

TAF

TAF GCGM 280200Z 2803/2903 23005KT 9999 FEW030 TX22/2814Z TN16/2805Z PROB30 TEMPO 2812/2820 VRB11G21KT

Decode

Departure Runways

ID Width Length Bearing (true) Bearing (mag) Surface Threshold Offset Overrun Length
09 98 ft / 30 m 4,914 ft / 1,498 m 81.17° 86.48° Asphalt 0 ft / 0 m 0 ft / 0 m
27 98 ft / 30 m 4,914 ft / 1,498 m 261.18° 266.49° Asphalt 0 ft / 0 m 0 ft / 0 m

GCHI

Details ICAO GCHI (VDE)
Name Hierro
Region Canary Islands
Timezone Atlantic/Canary (UTC+1.0)
Stats Elevation 337 ft / 103 m (AMSL)
Location 27.814848° -17.887052°
Runways 1
Magnetic Variation 5.575° W

METAR

Not found

TAF

TAF GCHI 280200Z 2803/2903 02016KT 9999 FEW030 TX22/2814Z TN18/2805Z PROB30 TEMPO 2816/2820 03016G26KT

Decode

Destination Runways

ID Width Length Bearing (true) Bearing (mag) Surface Threshold Offset Overrun Length
16 98 ft / 30 m 4,110 ft / 1,253 m 152.71° 158.29° Asphalt 0 ft / 0 m 112 ft / 34 m
34 98 ft / 30 m 4,110 ft / 1,253 m 332.71° 338.29° Asphalt 0 ft / 0 m 105 ft / 32 m

Popular Alternatives